sensor_id;sensor_type;location;lat;lon;timestamp;temperature;humidity
63407;SHT31;49543;45.892;10.838;2023-04-06T09:04:26;12.88;48.22
63407;SHT31;49543;45.892;10.838;2023-04-06T09:06:52;12.78;48.48
63407;SHT31;49543;45.892;10.838;2023-04-06T11:31:14;18.25;41.42
63407;SHT31;49543;45.892;10.838;2023-04-06T11:33:39;18.69;41.19
63407;SHT31;49543;45.892;10.838;2023-04-06T11:36:05;18.88;40.05
63407;SHT31;49543;45.892;10.838;2023-04-06T11:38:31;19.36;39.36
63407;SHT31;49543;45.892;10.838;2023-04-06T11:40:57;19.56;39.12
63407;SHT31;49543;45.892;10.838;2023-04-06T11:43:29;20.01;38.46
63407;SHT31;49543;45.892;10.838;2023-04-06T11:46:03;19.87;38.76
63407;SHT31;49543;45.892;10.838;2023-04-06T15:39:46;15.40;47.36
63407;SHT31;49543;45.892;10.838;2023-04-06T15:42:11;15.32;47.11
63407;SHT31;49543;45.892;10.838;2023-04-06T15:44:37;15.22;47.79
63407;SHT31;49543;45.892;10.838;2023-04-06T15:47:02;15.18;49.00
63407;SHT31;49543;45.892;10.838;2023-04-06T15:49:28;15.10;49.09
63407;SHT31;49543;45.892;10.838;2023-04-06T15:51:53;15.06;49.24
63407;SHT31;49543;45.892;10.838;2023-04-06T15:54:18;15.05;49.49
63407;SHT31;49543;45.892;10.838;2023-04-06T15:56:45;15.03;49.96
63407;SHT31;49543;45.892;10.838;2023-04-06T15:59:11;15.09;48.88
63407;SHT31;49543;45.892;10.838;2023-04-06T16:01:36;15.13;48.49
63407;SHT31;49543;45.892;10.838;2023-04-06T16:04:06;15.12;49.47
63407;SHT31;49543;45.892;10.838;2023-04-06T16:06:31;15.13;49.58
63407;SHT31;49543;45.892;10.838;2023-04-06T16:08:57;15.19;49.28
63407;SHT31;49543;45.892;10.838;2023-04-06T16:11:22;15.25;48.60
63407;SHT31;49543;45.892;10.838;2023-04-06T16:13:48;15.29;48.51
63407;SHT31;49543;45.892;10.838;2023-04-06T16:16:13;15.26;48.32
63407;SHT31;49543;45.892;10.838;2023-04-06T16:18:39;15.19;48.44
63407;SHT31;49543;45.892;10.838;2023-04-06T16:21:04;15.18;49.65
63407;SHT31;49543;45.892;10.838;2023-04-06T16:23:30;15.12;49.79
63407;SHT31;49543;45.892;10.838;2023-04-06T16:25:55;15.10;49.70
63407;SHT31;49543;45.892;10.838;2023-04-06T16:28:22;15.12;49.72
63407;SHT31;49543;45.892;10.838;2023-04-06T16:30:49;15.09;49.68
63407;SHT31;49543;45.892;10.838;2023-04-06T16:33:15;15.05;49.75
63407;SHT31;49543;45.892;10.838;2023-04-06T16:35:46;15.03;49.87
63407;SHT31;49543;45.892;10.838;2023-04-06T16:38:12;15.00;50.30
63407;SHT31;49543;45.892;10.838;2023-04-06T16:40:38;14.98;49.90
63407;SHT31;49543;45.892;10.838;2023-04-06T16:43:03;14.99;49.87
63407;SHT31;49543;45.892;10.838;2023-04-06T16:45:29;15.05;49.46
63407;SHT31;49543;45.892;10.838;2023-04-06T16:47:55;15.05;49.17
63407;SHT31;49543;45.892;10.838;2023-04-06T16:50:20;15.03;49.03
63407;SHT31;49543;45.892;10.838;2023-04-06T16:52:46;14.99;49.14
63407;SHT31;49543;45.892;10.838;2023-04-06T16:55:11;14.92;49.38
63407;SHT31;49543;45.892;10.838;2023-04-06T16:57:37;14.88;49.40
63407;SHT31;49543;45.892;10.838;2023-04-06T17:00:03;14.82;50.14
63407;SHT31;49543;45.892;10.838;2023-04-06T17:02:30;14.71;50.81
63407;SHT31;49543;45.892;10.838;2023-04-06T17:04:56;14.64;50.84
63407;SHT31;49543;45.892;10.838;2023-04-06T17:07:21;14.60;50.76
63407;SHT31;49543;45.892;10.838;2023-04-06T17:09:50;14.57;50.98
63407;SHT31;49543;45.892;10.838;2023-04-06T17:12:16;14.48;51.27
63407;SHT31;49543;45.892;10.838;2023-04-06T17:14:41;14.45;51.37
63407;SHT31;49543;45.892;10.838;2023-04-06T17:17:07;14.44;51.17
63407;SHT31;49543;45.892;10.838;2023-04-06T17:19:32;14.38;51.01
63407;SHT31;49543;45.892;10.838;2023-04-06T17:21:58;14.31;51.31
63407;SHT31;49543;45.892;10.838;2023-04-06T17:24:23;14.29;52.13
63407;SHT31;49543;45.892;10.838;2023-04-06T17:26:49;14.22;52.12
63407;SHT31;49543;45.892;10.838;2023-04-06T17:29:15;14.13;51.37
63407;SHT31;49543;45.892;10.838;2023-04-06T17:31:43;14.10;51.20
63407;SHT31;49543;45.892;10.838;2023-04-06T17:34:09;14.10;51.19
63407;SHT31;49543;45.892;10.838;2023-04-06T17:36:35;14.08;50.87
63407;SHT31;49543;45.892;10.838;2023-04-06T17:39:00;14.06;50.10
63407;SHT31;49543;45.892;10.838;2023-04-06T17:41:26;13.98;50.85
63407;SHT31;49543;45.892;10.838;2023-04-06T17:43:52;13.92;51.28
63407;SHT31;49543;45.892;10.838;2023-04-06T17:46:18;13.90;51.55
63407;SHT31;49543;45.892;10.838;2023-04-06T17:48:45;13.89;51.47
63407;SHT31;49543;45.892;10.838;2023-04-06T17:51:13;13.90;51.35
63407;SHT31;49543;45.892;10.838;2023-04-06T17:53:38;13.89;51.36
63407;SHT31;49543;45.892;10.838;2023-04-06T17:56:04;13.86;51.18
63407;SHT31;49543;45.892;10.838;2023-04-06T17:58:29;13.83;50.62
63407;SHT31;49543;45.892;10.838;2023-04-06T18:00:55;13.83;50.36
63407;SHT31;49543;45.892;10.838;2023-04-06T18:03:21;13.82;50.27
63407;SHT31;49543;45.892;10.838;2023-04-06T18:05:46;13.83;50.00
63407;SHT31;49543;45.892;10.838;2023-04-06T18:08:11;13.79;50.00
63407;SHT31;49543;45.892;10.838;2023-04-06T18:10:38;13.76;50.03
63407;SHT31;49543;45.892;10.838;2023-04-06T18:13:05;13.69;50.29
63407;SHT31;49543;45.892;10.838;2023-04-06T18:15:33;13.64;49.44
63407;SHT31;49543;45.892;10.838;2023-04-06T20:53:04;12.49;53.70
63407;SHT31;49543;45.892;10.838;2023-04-06T20:55:30;12.47;53.89
63407;SHT31;49543;45.892;10.838;2023-04-06T20:57:56;12.47;53.64
63407;SHT31;49543;45.892;10.838;2023-04-06T21:00:21;12.49;53.61
63407;SHT31;49543;45.892;10.838;2023-04-06T21:02:47;12.49;54.03
63407;SHT31;49543;45.892;10.838;2023-04-06T21:05:12;12.49;54.42
63407;SHT31;49543;45.892;10.838;2023-04-06T21:07:37;12.56;54.01
63407;SHT31;49543;45.892;10.838;2023-04-06T21:10:04;12.61;53.70
63407;SHT31;49543;45.892;10.838;2023-04-06T21:12:30;12.62;53.61
63407;SHT31;49543;45.892;10.838;2023-04-06T21:14:55;12.58;52.47
63407;SHT31;49543;45.892;10.838;2023-04-06T21:17:21;12.52;52.23
63407;SHT31;49543;45.892;10.838;2023-04-06T21:19:47;12.42;52.55
63407;SHT31;49543;45.892;10.838;2023-04-06T21:22:12;12.44;52.91
63407;SHT31;49543;45.892;10.838;2023-04-06T21:24:37;12.44;53.06
63407;SHT31;49543;45.892;10.838;2023-04-06T21:27:03;12.48;53.07
63407;SHT31;49543;45.892;10.838;2023-04-06T21:29:30;12.45;53.23
63407;SHT31;49543;45.892;10.838;2023-04-06T21:31:56;12.47;53.45
63407;SHT31;49543;45.892;10.838;2023-04-06T21:34:22;12.44;53.88
63407;SHT31;49543;45.892;10.838;2023-04-06T21:36:47;12.42;54.36
63407;SHT31;49543;45.892;10.838;2023-04-06T21:39:12;12.41;54.40
63407;SHT31;49543;45.892;10.838;2023-04-06T21:41:38;12.41;54.61
63407;SHT31;49543;45.892;10.838;2023-04-06T21:44:05;12.40;54.35
63407;SHT31;49543;45.892;10.838;2023-04-06T21:46:31;12.37;54.84
63407;SHT31;49543;45.892;10.838;2023-04-06T21:48:57;12.38;55.12
63407;SHT31;49543;45.892;10.838;2023-04-06T21:51:22;12.37;55.41
63407;SHT31;49543;45.892;10.838;2023-04-06T21:53:48;12.37;55.30
63407;SHT31;49543;45.892;10.838;2023-04-06T21:56:20;12.37;55.14
63407;SHT31;49543;45.892;10.838;2023-04-06T21:58:49;12.38;55.31
63407;SHT31;49543;45.892;10.838;2023-04-06T22:01:15;12.28;55.72
63407;SHT31;49543;45.892;10.838;2023-04-06T22:03:42;12.27;55.56
63407;SHT31;49543;45.892;10.838;2023-04-06T22:06:07;12.26;55.51
63407;SHT31;49543;45.892;10.838;2023-04-06T22:08:33;12.21;55.30
63407;SHT31;49543;45.892;10.838;2023-04-06T22:10:59;12.21;54.99
63407;SHT31;49543;45.892;10.838;2023-04-06T22:13:26;12.21;54.96
63407;SHT31;49543;45.892;10.838;2023-04-06T22:15:52;12.17;55.07
63407;SHT31;49543;45.892;10.838;2023-04-06T22:18:17;12.14;55.21
63407;SHT31;49543;45.892;10.838;2023-04-06T22:20:43;12.14;55.32
63407;SHT31;49543;45.892;10.838;2023-04-06T22:23:09;12.14;55.27
63407;SHT31;49543;45.892;10.838;2023-04-06T22:25:34;12.09;55.31
63407;SHT31;49543;45.892;10.838;2023-04-06T22:28:00;12.09;55.63
63407;SHT31;49543;45.892;10.838;2023-04-06T22:30:25;12.09;55.59
63407;SHT31;49543;45.892;10.838;2023-04-06T22:32:51;12.09;55.66
63407;SHT31;49543;45.892;10.838;2023-04-06T22:35:16;12.06;55.88
63407;SHT31;49543;45.892;10.838;2023-04-06T22:37:42;12.04;55.70
63407;SHT31;49543;45.892;10.838;2023-04-06T22:40:09;12.00;55.59
63407;SHT31;49543;45.892;10.838;2023-04-06T22:42:35;11.96;55.69
